sensor_id;sensor_type;location;lat;lon;timestamp;P1;durP1;ratioP1;P2;durP2;ratioP2
39524;SDS011;25203;50.754;6.978;2023-07-02T00:02:00;9.38;;;5.07;;
39524;SDS011;25203;50.754;6.978;2023-07-02T00:04:01;8.70;;;5.55;;
39524;SDS011;25203;50.754;6.978;2023-07-02T00:06:02;6.53;;;4.97;;
39524;SDS011;25203;50.754;6.978;2023-07-02T00:08:02;8.82;;;4.72;;
39524;SDS011;25203;50.754;6.978;2023-07-02T00:10:03;7.95;;;4.65;;
39524;SDS011;25203;50.754;6.978;2023-07-02T00:12:04;7.93;;;4.68;;
39524;SDS011;25203;50.754;6.978;2023-07-02T00:14:06;6.93;;;5.03;;
39524;SDS011;25203;50.754;6.978;2023-07-02T00:16:07;6.95;;;4.97;;
39524;SDS011;25203;50.754;6.978;2023-07-02T00:18:08;6.88;;;5.20;;
39524;SDS011;25203;50.754;6.978;2023-07-02T00:20:08;6.60;;;4.68;;
39524;SDS011;25203;50.754;6.978;2023-07-02T00:22:14;9.75;;;4.78;;
39524;SDS011;25203;50.754;6.978;2023-07-02T00:24:15;6.15;;;4.53;;
39524;SDS011;25203;50.754;6.978;2023-07-02T00:26:16;5.82;;;4.60;;
39524;SDS011;25203;50.754;6.978;2023-07-02T00:28:17;6.65;;;4.60;;
39524;SDS011;25203;50.754;6.978;2023-07-02T00:30:17;11.50;;;4.65;;
39524;SDS011;25203;50.754;6.978;2023-07-02T00:32:18;8.60;;;4.70;;
39524;SDS011;25203;50.754;6.978;2023-07-02T00:34:19;10.57;;;5.10;;
39524;SDS011;25203;50.754;6.978;2023-07-02T00:36:19;8.90;;;4.80;;
39524;SDS011;25203;50.754;6.978;2023-07-02T00:38:21;6.03;;;4.45;;
39524;SDS011;25203;50.754;6.978;2023-07-02T00:40:21;10.07;;;5.00;;
39524;SDS011;25203;50.754;6.978;2023-07-02T00:42:22;8.48;;;4.43;;
39524;SDS011;25203;50.754;6.978;2023-07-02T00:44:23;9.27;;;4.63;;
39524;SDS011;25203;50.754;6.978;2023-07-02T00:46:24;9.27;;;4.80;;
39524;SDS011;25203;50.754;6.978;2023-07-02T00:48:25;8.13;;;4.72;;
39524;SDS011;25203;50.754;6.978;2023-07-02T00:50:26;10.55;;;5.20;;
39524;SDS011;25203;50.754;6.978;2023-07-02T00:52:27;12.75;;;4.93;;
39524;SDS011;25203;50.754;6.978;2023-07-02T00:54:28;10.05;;;5.15;;
39524;SDS011;25203;50.754;6.978;2023-07-02T00:56:29;7.13;;;4.93;;
39524;SDS011;25203;50.754;6.978;2023-07-02T00:58:29;10.27;;;5.38;;
39524;SDS011;25203;50.754;6.978;2023-07-02T01:00:31;12.45;;;6.38;;
39524;SDS011;25203;50.754;6.978;2023-07-02T01:02:31;13.60;;;5.75;;
39524;SDS011;25203;50.754;6.978;2023-07-02T01:04:32;12.50;;;7.07;;
39524;SDS011;25203;50.754;6.978;2023-07-02T01:06:33;11.48;;;5.85;;
39524;SDS011;25203;50.754;6.978;2023-07-02T01:08:35;10.73;;;5.93;;
39524;SDS011;25203;50.754;6.978;2023-07-02T01:10:35;10.63;;;6.05;;
39524;SDS011;25203;50.754;6.978;2023-07-02T01:12:36;12.60;;;5.90;;
39524;SDS011;25203;50.754;6.978;2023-07-02T01:14:38;14.07;;;6.50;;
39524;SDS011;25203;50.754;6.978;2023-07-02T01:16:44;10.85;;;6.28;;
39524;SDS011;25203;50.754;6.978;2023-07-02T01:18:46;14.38;;;6.55;;
39524;SDS011;25203;50.754;6.978;2023-07-02T01:20:50;15.32;;;6.03;;
39524;SDS011;25203;50.754;6.978;2023-07-02T01:22:53;14.93;;;6.35;;
39524;SDS011;25203;50.754;6.978;2023-07-02T01:24:54;12.50;;;5.75;;
39524;SDS011;25203;50.754;6.978;2023-07-02T01:26:55;13.25;;;6.47;;
39524;SDS011;25203;50.754;6.978;2023-07-02T01:28:56;13.93;;;6.10;;
39524;SDS011;25203;50.754;6.978;2023-07-02T01:30:56;11.70;;;6.15;;
39524;SDS011;25203;50.754;6.978;2023-07-02T01:32:57;12.95;;;6.18;;
39524;SDS011;25203;50.754;6.978;2023-07-02T01:34:58;11.68;;;6.30;;
39524;SDS011;25203;50.754;6.978;2023-07-02T01:36:58;10.38;;;7.05;;
39524;SDS011;25203;50.754;6.978;2023-07-02T01:38:59;14.55;;;6.20;;
39524;SDS011;25203;50.754;6.978;2023-07-02T01:41:00;10.25;;;6.43;;
39524;SDS011;25203;50.754;6.978;2023-07-02T01:43:00;16.63;;;7.00;;
39524;SDS011;25203;50.754;6.978;2023-07-02T01:45:01;15.77;;;7.00;;
39524;SDS011;25203;50.754;6.978;2023-07-02T01:47:02;12.95;;;7.15;;
39524;SDS011;25203;50.754;6.978;2023-07-02T01:49:03;19.48;;;7.95;;
39524;SDS011;25203;50.754;6.978;2023-07-02T01:51:03;15.52;;;7.82;;
39524;SDS011;25203;50.754;6.978;2023-07-02T01:53:04;21.38;;;8.02;;
39524;SDS011;25203;50.754;6.978;2023-07-02T01:55:05;16.63;;;8.90;;
39524;SDS011;25203;50.754;6.978;2023-07-02T01:57:05;21.08;;;8.98;;
39524;SDS011;25203;50.754;6.978;2023-07-02T01:59:06;19.55;;;9.07;;
39524;SDS011;25203;50.754;6.978;2023-07-02T02:01:07;28.90;;;9.90;;
39524;SDS011;25203;50.754;6.978;2023-07-02T02:03:07;18.98;;;8.82;;
39524;SDS011;25203;50.754;6.978;2023-07-02T02:05:08;18.65;;;9.35;;
39524;SDS011;25203;50.754;6.978;2023-07-02T02:07:09;18.67;;;10.60;;
39524;SDS011;25203;50.754;6.978;2023-07-02T02:09:10;22.92;;;10.27;;
39524;SDS011;25203;50.754;6.978;2023-07-02T02:11:10;16.58;;;9.90;;
39524;SDS011;25203;50.754;6.978;2023-07-02T02:13:11;25.58;;;10.32;;
39524;SDS011;25203;50.754;6.978;2023-07-02T02:15:11;23.90;;;11.02;;
39524;SDS011;25203;50.754;6.978;2023-07-02T02:17:14;22.27;;;10.80;;
39524;SDS011;25203;50.754;6.978;2023-07-02T02:19:14;25.45;;;10.55;;
39524;SDS011;25203;50.754;6.978;2023-07-02T02:21:15;29.13;;;11.48;;
39524;SDS011;25203;50.754;6.978;2023-07-02T02:23:16;18.15;;;10.70;;
39524;SDS011;25203;50.754;6.978;2023-07-02T02:25:16;23.08;;;12.18;;
39524;SDS011;25203;50.754;6.978;2023-07-02T02:27:17;24.65;;;12.00;;
39524;SDS011;25203;50.754;6.978;2023-07-02T02:29:17;24.30;;;12.60;;
39524;SDS011;25203;50.754;6.978;2023-07-02T02:31:18;20.38;;;10.60;;
39524;SDS011;25203;50.754;6.978;2023-07-02T02:33:19;24.10;;;11.27;;
39524;SDS011;25203;50.754;6.978;2023-07-02T02:35:20;23.00;;;10.93;;
39524;SDS011;25203;50.754;6.978;2023-07-02T02:37:22;21.70;;;11.98;;
39524;SDS011;25203;50.754;6.978;2023-07-02T02:39:23;28.98;;;12.02;;
39524;SDS011;25203;50.754;6.978;2023-07-02T02:41:24;20.63;;;12.82;;
39524;SDS011;25203;50.754;6.978;2023-07-02T02:43:24;27.67;;;12.60;;
39524;SDS011;25203;50.754;6.978;2023-07-02T02:45:25;32.97;;;12.50;;
39524;SDS011;25203;50.754;6.978;2023-07-02T02:47:26;25.45;;;11.98;;
39524;SDS011;25203;50.754;6.978;2023-07-02T02:49:26;26.35;;;12.82;;
39524;SDS011;25203;50.754;6.978;2023-07-02T02:51:27;22.35;;;11.68;;
39524;SDS011;25203;50.754;6.978;2023-07-02T02:53:27;28.67;;;12.25;;
39524;SDS011;25203;50.754;6.978;2023-07-02T02:55:28;24.63;;;12.73;;
39524;SDS011;25203;50.754;6.978;2023-07-02T02:57:28;32.45;;;11.55;;
39524;SDS011;25203;50.754;6.978;2023-07-02T02:59:29;19.55;;;12.48;;
39524;SDS011;25203;50.754;6.978;2023-07-02T03:01:30;31.50;;;12.65;;
39524;SDS011;25203;50.754;6.978;2023-07-02T03:03:30;36.95;;;13.80;;
39524;SDS011;25203;50.754;6.978;2023-07-02T03:05:34;23.17;;;12.13;;
39524;SDS011;25203;50.754;6.978;2023-07-02T03:07:34;23.60;;;12.30;;
39524;SDS011;25203;50.754;6.978;2023-07-02T03:09:35;26.63;;;12.30;;
39524;SDS011;25203;50.754;6.978;2023-07-02T03:11:36;24.88;;;13.00;;
39524;SDS011;25203;50.754;6.978;2023-07-02T03:13:36;29.13;;;13.05;;
39524;SDS011;25203;50.754;6.978;2023-07-02T03:15:37;32.60;;;13.52;;
39524;SDS011;25203;50.754;6.978;2023-07-02T03:17:38;28.05;;;13.07;;
39524;SDS011;25203;50.754;6.978;2023-07-02T03:19:38;29.38;;;12.65;;
39524;SDS011;25203;50.754;6.978;2023-07-02T03:21:39;29.95;;;13.05;;
39524;SDS011;25203;50.754;6.978;2023-07-02T03:23:39;27.02;;;12.63;;
39524;SDS011;25203;50.754;6.978;2023-07-02T03:25:40;25.40;;;13.48;;
39524;SDS011;25203;50.754;6.978;2023-07-02T03:27:40;26.17;;;13.40;;
39524;SDS011;25203;50.754;6.978;2023-07-02T03:29:41;36.40;;;14.38;;
39524;SDS011;25203;50.754;6.978;2023-07-02T03:31:42;25.85;;;13.15;;
39524;SDS011;25203;50.754;6.978;2023-07-02T03:33:42;24.95;;;14.05;;
39524;SDS011;25203;50.754;6.978;2023-07-02T03:35:43;35.97;;;14.60;;
39524;SDS011;25203;50.754;6.978;2023-07-02T03:37:44;30.02;;;14.23;;
39524;SDS011;25203;50.754;6.978;2023-07-02T03:39:46;35.17;;;13.25;;
39524;SDS011;25203;50.754;6.978;2023-07-02T03:41:46;31.48;;;14.80;;
39524;SDS011;25203;50.754;6.978;2023-07-02T03:43:47;36.08;;;14.38;;
39524;SDS011;25203;50.754;6.978;2023-07-02T03:45:48;28.20;;;14.85;;
39524;SDS011;25203;50.754;6.978;2023-07-02T03:47:48;29.52;;;14.48;;
39524;SDS011;25203;50.754;6.978;2023-07-02T03:49:49;29.75;;;13.77;;
39524;SDS011;25203;50.754;6.978;2023-07-02T03:51:49;32.10;;;13.50;;
39524;SDS011;25203;50.754;6.978;2023-07-02T03:53:50;39.35;;;15.40;;
39524;SDS011;25203;50.754;6.978;2023-07-02T03:55:51;25.27;;;13.93;;
39524;SDS011;25203;50.754;6.978;2023-07-02T03:57:52;38.67;;;15.95;;
39524;SDS011;25203;50.754;6.978;2023-07-02T03:59:53;40.38;;;15.15;;
39524;SDS011;25203;50.754;6.978;2023-07-02T04:01:53;31.65;;;15.38;;
39524;SDS011;25203;50.754;6.978;2023-07-02T04:03:54;31.80;;;15.88;;
39524;SDS011;25203;50.754;6.978;2023-07-02T04:05:56;40.08;;;16.70;;
39524;SDS011;25203;50.754;6.978;2023-07-02T04:07:57;43.47;;;18.70;;
39524;SDS011;25203;50.754;6.978;2023-07-02T04:09:57;33.83;;;16.10;;
39524;SDS011;25203;50.754;6.978;2023-07-02T04:11:59;32.30;;;16.63;;
39524;SDS011;25203;50.754;6.978;2023-07-02T04:14:00;39.80;;;16.95;;
39524;SDS011;25203;50.754;6.978;2023-07-02T04:16:01;46.63;;;18.08;;
39524;SDS011;25203;50.754;6.978;2023-07-02T04:18:01;39.25;;;17.98;;
39524;SDS011;25203;50.754;6.978;2023-07-02T04:20:02;37.92;;;18.08;;
39524;SDS011;25203;50.754;6.978;2023-07-02T04:22:07;41.65;;;18.13;;
39524;SDS011;25203;50.754;6.978;2023-07-02T04:24:07;38.28;;;18.40;;
39524;SDS011;25203;50.754;6.978;2023-07-02T04:26:08;35.15;;;18.88;;
39524;SDS011;25203;50.754;6.978;2023-07-02T04:28:08;26.58;;;16.48;;
39524;SDS011;25203;50.754;6.978;2023-07-02T04:30:09;38.20;;;18.48;;
39524;SDS011;25203;50.754;6.978;2023-07-02T04:32:11;36.88;;;18.77;;
39524;SDS011;25203;50.754;6.978;2023-07-02T04:34:11;40.08;;;19.48;;
39524;SDS011;25203;50.754;6.978;2023-07-02T04:36:12;37.05;;;18.75;;
39524;SDS011;25203;50.754;6.978;2023-07-02T04:38:13;38.10;;;19.80;;
39524;SDS011;25203;50.754;6.978;2023-07-02T04:40:13;41.42;;;19.73;;
39524;SDS011;25203;50.754;6.978;2023-07-02T04:42:14;44.53;;;20.00;;
39524;SDS011;25203;50.754;6.978;2023-07-02T04:44:14;38.78;;;18.85;;
39524;SDS011;25203;50.754;6.978;2023-07-02T04:46:15;38.55;;;18.63;;
39524;SDS011;25203;50.754;6.978;2023-07-02T04:48:18;43.45;;;19.70;;
39524;SDS011;25203;50.754;6.978;2023-07-02T04:50:18;41.70;;;18.90;;
39524;SDS011;25203;50.754;6.978;2023-07-02T04:52:19;43.08;;;19.70;;
39524;SDS011;25203;50.754;6.978;2023-07-02T04:54:20;39.03;;;19.67;;
39524;SDS011;25203;50.754;6.978;2023-07-02T04:56:21;50.53;;;21.23;;
39524;SDS011;25203;50.754;6.978;2023-07-02T04:58:22;43.47;;;21.17;;
39524;SDS011;25203;50.754;6.978;2023-07-02T05:00:23;42.30;;;21.27;;
39524;SDS011;25203;50.754;6.978;2023-07-02T05:02:23;41.67;;;21.45;;
39524;SDS011;25203;50.754;6.978;2023-07-02T05:04:24;47.85;;;20.92;;
39524;SDS011;25203;50.754;6.978;2023-07-02T05:06:24;49.47;;;20.95;;
39524;SDS011;25203;50.754;6.978;2023-07-02T05:08:25;48.20;;;21.38;;
39524;SDS011;25203;50.754;6.978;2023-07-02T05:10:26;49.72;;;22.67;;
39524;SDS011;25203;50.754;6.978;2023-07-02T05:12:26;49.75;;;22.48;;
39524;SDS011;25203;50.754;6.978;2023-07-02T05:14:27;43.28;;;21.92;;
39524;SDS011;25203;50.754;6.978;2023-07-02T05:16:27;39.08;;;21.65;;
39524;SDS011;25203;50.754;6.978;2023-07-02T05:18:28;46.35;;;22.23;;
39524;SDS011;25203;50.754;6.978;2023-07-02T05:20:29;46.53;;;22.23;;
39524;SDS011;25203;50.754;6.978;2023-07-02T05:22:29;45.90;;;21.88;;
39524;SDS011;25203;50.754;6.978;2023-07-02T05:24:30;59.55;;;24.52;;
39524;SDS011;25203;50.754;6.978;2023-07-02T05:26:30;51.25;;;23.90;;
39524;SDS011;25203;50.754;6.978;2023-07-02T05:28:31;45.72;;;24.17;;
39524;SDS011;25203;50.754;6.978;2023-07-02T05:30:31;52.40;;;24.20;;
39524;SDS011;25203;50.754;6.978;2023-07-02T05:32:33;47.67;;;24.60;;
39524;SDS011;25203;50.754;6.978;2023-07-02T05:34:34;47.78;;;23.70;;
39524;SDS011;25203;50.754;6.978;2023-07-02T05:36:35;44.63;;;24.50;;
39524;SDS011;25203;50.754;6.978;2023-07-02T05:38:35;47.38;;;23.15;;
39524;SDS011;25203;50.754;6.978;2023-07-02T05:40:36;54.40;;;26.33;;
39524;SDS011;25203;50.754;6.978;2023-07-02T05:42:37;50.20;;;24.65;;
39524;SDS011;25203;50.754;6.978;2023-07-02T05:44:38;53.47;;;25.17;;
39524;SDS011;25203;50.754;6.978;2023-07-02T05:46:39;54.00;;;26.60;;
39524;SDS011;25203;50.754;6.978;2023-07-02T05:48:40;53.05;;;25.75;;
39524;SDS011;25203;50.754;6.978;2023-07-02T05:50:41;47.63;;;26.35;;
39524;SDS011;25203;50.754;6.978;2023-07-02T05:52:41;57.30;;;27.08;;
39524;SDS011;25203;50.754;6.978;2023-07-02T05:54:42;55.17;;;26.25;;
39524;SDS011;25203;50.754;6.978;2023-07-02T05:56:42;56.45;;;26.38;;
39524;SDS011;25203;50.754;6.978;2023-07-02T05:58:44;55.08;;;28.23;;
39524;SDS011;25203;50.754;6.978;2023-07-02T06:00:46;46.35;;;26.42;;
39524;SDS011;25203;50.754;6.978;2023-07-02T06:02:49;51.85;;;27.98;;
39524;SDS011;25203;50.754;6.978;2023-07-02T06:04:49;55.75;;;27.67;;
39524;SDS011;25203;50.754;6.978;2023-07-02T06:06:50;48.92;;;26.90;;
39524;SDS011;25203;50.754;6.978;2023-07-02T06:08:51;60.88;;;27.85;;
39524;SDS011;25203;50.754;6.978;2023-07-02T06:10:52;44.60;;;25.65;;
39524;SDS011;25203;50.754;6.978;2023-07-02T06:12:52;46.63;;;26.73;;
39524;SDS011;25203;50.754;6.978;2023-07-02T06:14:53;51.25;;;25.88;;
39524;SDS011;25203;50.754;6.978;2023-07-02T06:16:54;49.88;;;26.50;;
39524;SDS011;25203;50.754;6.978;2023-07-02T06:18:57;52.30;;;26.13;;
39524;SDS011;25203;50.754;6.978;2023-07-02T06:20:57;48.40;;;25.27;;
39524;SDS011;25203;50.754;6.978;2023-07-02T06:22:58;47.78;;;26.10;;
39524;SDS011;25203;50.754;6.978;2023-07-02T06:24:59;49.17;;;24.98;;
39524;SDS011;25203;50.754;6.978;2023-07-02T06:26:59;44.42;;;24.92;;
39524;SDS011;25203;50.754;6.978;2023-07-02T06:29:00;49.58;;;25.20;;
39524;SDS011;25203;50.754;6.978;2023-07-02T06:31:00;56.03;;;25.15;;
39524;SDS011;25203;50.754;6.978;2023-07-02T06:33:01;44.45;;;23.70;;
39524;SDS011;25203;50.754;6.978;2023-07-02T06:35:02;46.13;;;25.17;;
39524;SDS011;25203;50.754;6.978;2023-07-02T06:37:03;46.40;;;25.42;;
39524;SDS011;25203;50.754;6.978;2023-07-02T06:39:04;50.85;;;25.60;;
39524;SDS011;25203;50.754;6.978;2023-07-02T06:41:04;44.97;;;24.83;;
39524;SDS011;25203;50.754;6.978;2023-07-02T06:43:05;45.17;;;24.23;;
39524;SDS011;25203;50.754;6.978;2023-07-02T06:45:06;50.30;;;23.13;;
39524;SDS011;25203;50.754;6.978;2023-07-02T06:47:07;42.85;;;24.30;;
39524;SDS011;25203;50.754;6.978;2023-07-02T06:49:07;46.13;;;23.15;;
39524;SDS011;25203;50.754;6.978;2023-07-02T06:51:08;40.15;;;24.52;;
39524;SDS011;25203;50.754;6.978;2023-07-02T06:53:08;47.17;;;25.13;;
39524;SDS011;25203;50.754;6.978;2023-07-02T06:55:09;45.50;;;25.42;;
39524;SDS011;25203;50.754;6.978;2023-07-02T06:57:10;45.00;;;24.05;;
39524;SDS011;25203;50.754;6.978;2023-07-02T06:59:10;44.97;;;24.73;;
39524;SDS011;25203;50.754;6.978;2023-07-02T07:01:11;55.40;;;25.38;;
39524;SDS011;25203;50.754;6.978;2023-07-02T07:03:11;47.15;;;24.05;;
39524;SDS011;25203;50.754;6.978;2023-07-02T07:05:12;39.85;;;23.65;;
39524;SDS011;25203;50.754;6.978;2023-07-02T07:07:13;46.08;;;24.50;;
39524;SDS011;25203;50.754;6.978;2023-07-02T07:09:14;44.28;;;22.27;;
39524;SDS011;25203;50.754;6.978;2023-07-02T07:11:14;40.20;;;22.90;;
39524;SDS011;25203;50.754;6.978;2023-07-02T07:13:15;40.78;;;23.42;;
39524;SDS011;25203;50.754;6.978;2023-07-02T07:15:16;39.70;;;23.85;;
39524;SDS011;25203;50.754;6.978;2023-07-02T07:17:16;39.97;;;23.17;;
39524;SDS011;25203;50.754;6.978;2023-07-02T07:19:17;42.65;;;23.27;;
39524;SDS011;25203;50.754;6.978;2023-07-02T07:21:17;35.55;;;21.75;;
39524;SDS011;25203;50.754;6.978;2023-07-02T07:23:18;35.47;;;22.73;;
39524;SDS011;25203;50.754;6.978;2023-07-02T07:25:19;41.85;;;22.80;;
39524;SDS011;25203;50.754;6.978;2023-07-02T07:27:19;44.75;;;21.45;;
39524;SDS011;25203;50.754;6.978;2023-07-02T07:29:21;38.78;;;22.05;;
39524;SDS011;25203;50.754;6.978;2023-07-02T07:31:22;42.58;;;22.02;;
39524;SDS011;25203;50.754;6.978;2023-07-02T07:33:22;37.03;;;21.75;;
39524;SDS011;25203;50.754;6.978;2023-07-02T07:35:23;48.50;;;23.05;;
39524;SDS011;25203;50.754;6.978;2023-07-02T07:37:24;39.45;;;21.30;;
39524;SDS011;25203;50.754;6.978;2023-07-02T07:39:27;40.92;;;21.65;;
39524;SDS011;25203;50.754;6.978;2023-07-02T07:41:28;36.35;;;19.63;;
39524;SDS011;25203;50.754;6.978;2023-07-02T07:43:29;49.42;;;22.30;;
39524;SDS011;25203;50.754;6.978;2023-07-02T07:45:29;41.03;;;22.15;;
39524;SDS011;25203;50.754;6.978;2023-07-02T07:47:30;40.17;;;21.25;;
39524;SDS011;25203;50.754;6.978;2023-07-02T07:49:30;36.40;;;20.23;;
39524;SDS011;25203;50.754;6.978;2023-07-02T07:51:31;36.25;;;19.42;;
39524;SDS011;25203;50.754;6.978;2023-07-02T07:53:32;37.92;;;19.95;;
39524;SDS011;25203;50.754;6.978;2023-07-02T07:55:32;48.88;;;20.85;;
39524;SDS011;25203;50.754;6.978;2023-07-02T07:57:33;36.40;;;18.48;;
39524;SDS011;25203;50.754;6.978;2023-07-02T07:59:35;35.70;;;19.40;;
39524;SDS011;25203;50.754;6.978;2023-07-02T08:01:36;35.53;;;19.00;;
39524;SDS011;25203;50.754;6.978;2023-07-02T08:03:37;37.22;;;19.63;;
39524;SDS011;25203;50.754;6.978;2023-07-02T08:05:38;33.80;;;18.98;;
39524;SDS011;25203;50.754;6.978;2023-07-02T08:07:39;35.50;;;19.20;;
39524;SDS011;25203;50.754;6.978;2023-07-02T08:09:43;39.85;;;19.52;;
39524;SDS011;25203;50.754;6.978;2023-07-02T08:11:43;30.63;;;17.90;;
39524;SDS011;25203;50.754;6.978;2023-07-02T08:13:44;36.65;;;19.00;;
39524;SDS011;25203;50.754;6.978;2023-07-02T08:15:44;29.65;;;17.83;;
39524;SDS011;25203;50.754;6.978;2023-07-02T08:17:45;34.92;;;18.60;;
39524;SDS011;25203;50.754;6.978;2023-07-02T08:19:45;31.52;;;18.42;;
39524;SDS011;25203;50.754;6.978;2023-07-02T08:21:46;35.30;;;19.42;;
39524;SDS011;25203;50.754;6.978;2023-07-02T08:23:47;37.92;;;19.05;;
39524;SDS011;25203;50.754;6.978;2023-07-02T08:25:47;31.92;;;16.92;;
39524;SDS011;25203;50.754;6.978;2023-07-02T08:27:48;33.83;;;16.20;;
39524;SDS011;25203;50.754;6.978;2023-07-02T08:29:48;26.77;;;15.23;;
39524;SDS011;25203;50.754;6.978;2023-07-02T08:31:49;27.48;;;16.25;;
39524;SDS011;25203;50.754;6.978;2023-07-02T08:33:50;21.73;;;13.38;;
39524;SDS011;25203;50.754;6.978;2023-07-02T08:35:50;21.80;;;12.55;;
39524;SDS011;25203;50.754;6.978;2023-07-02T08:37:51;25.73;;;14.52;;
39524;SDS011;25203;50.754;6.978;2023-07-02T08:39:51;24.98;;;14.93;;
39524;SDS011;25203;50.754;6.978;2023-07-02T08:41:52;25.20;;;14.55;;
39524;SDS011;25203;50.754;6.978;2023-07-02T08:43:54;26.55;;;14.93;;
39524;SDS011;25203;50.754;6.978;2023-07-02T08:45:55;24.15;;;13.82;;
39524;SDS011;25203;50.754;6.978;2023-07-02T08:47:56;28.60;;;14.65;;
39524;SDS011;25203;50.754;6.978;2023-07-02T08:49:58;29.27;;;14.60;;
39524;SDS011;25203;50.754;6.978;2023-07-02T08:51:58;28.52;;;14.95;;
39524;SDS011;25203;50.754;6.978;2023-07-02T08:53:59;26.88;;;14.70;;
39524;SDS011;25203;50.754;6.978;2023-07-02T08:56:01;28.33;;;15.00;;
39524;SDS011;25203;50.754;6.978;2023-07-02T08:58:03;31.42;;;14.52;;
39524;SDS011;25203;50.754;6.978;2023-07-02T09:00:08;28.95;;;15.45;;
39524;SDS011;25203;50.754;6.978;2023-07-02T09:02:09;26.30;;;14.75;;
39524;SDS011;25203;50.754;6.978;2023-07-02T09:04:14;28.30;;;15.35;;
39524;SDS011;25203;50.754;6.978;2023-07-02T09:06:19;25.02;;;14.18;;
39524;SDS011;25203;50.754;6.978;2023-07-02T09:08:23;29.90;;;16.23;;
39524;SDS011;25203;50.754;6.978;2023-07-02T09:10:28;29.23;;;16.20;;
39524;SDS011;25203;50.754;6.978;2023-07-02T09:12:30;31.73;;;16.60;;
39524;SDS011;25203;50.754;6.978;2023-07-02T09:14:32;29.55;;;16.35;;
39524;SDS011;25203;50.754;6.978;2023-07-02T09:16:32;30.13;;;15.75;;
39524;SDS011;25203;50.754;6.978;2023-07-02T09:18:36;29.25;;;16.83;;
39524;SDS011;25203;50.754;6.978;2023-07-02T09:20:37;29.70;;;16.42;;
39524;SDS011;25203;50.754;6.978;2023-07-02T09:22:37;28.63;;;16.00;;
39524;SDS011;25203;50.754;6.978;2023-07-02T09:24:40;33.53;;;18.25;;
39524;SDS011;25203;50.754;6.978;2023-07-02T09:26:51;28.33;;;16.02;;
39524;SDS011;25203;50.754;6.978;2023-07-02T09:29:00;27.67;;;16.70;;
39524;SDS011;25203;50.754;6.978;2023-07-02T09:31:01;33.15;;;16.73;;
39524;SDS011;25203;50.754;6.978;2023-07-02T09:33:08;27.67;;;16.00;;
39524;SDS011;25203;50.754;6.978;2023-07-02T09:35:09;31.67;;;17.58;;
39524;SDS011;25203;50.754;6.978;2023-07-02T09:37:09;27.08;;;15.50;;
39524;SDS011;25203;50.754;6.978;2023-07-02T09:39:13;30.83;;;15.77;;
39524;SDS011;25203;50.754;6.978;2023-07-02T09:41:19;28.65;;;16.52;;
39524;SDS011;25203;50.754;6.978;2023-07-02T09:43:19;25.65;;;15.75;;
39524;SDS011;25203;50.754;6.978;2023-07-02T09:45:21;31.40;;;15.52;;
39524;SDS011;25203;50.754;6.978;2023-07-02T09:47:22;30.08;;;15.50;;
39524;SDS011;25203;50.754;6.978;2023-07-02T09:49:24;28.85;;;14.85;;
39524;SDS011;25203;50.754;6.978;2023-07-02T09:51:26;28.35;;;16.10;;
39524;SDS011;25203;50.754;6.978;2023-07-02T09:53:28;30.27;;;15.32;;
39524;SDS011;25203;50.754;6.978;2023-07-02T09:55:28;34.97;;;14.75;;
39524;SDS011;25203;50.754;6.978;2023-07-02T09:57:29;29.40;;;14.48;;
39524;SDS011;25203;50.754;6.978;2023-07-02T09:59:31;27.17;;;15.70;;
39524;SDS011;25203;50.754;6.978;2023-07-02T10:01:31;25.33;;;15.68;;
39524;SDS011;25203;50.754;6.978;2023-07-02T10:03:32;29.95;;;16.13;;
39524;SDS011;25203;50.754;6.978;2023-07-02T10:05:33;22.88;;;14.15;;
39524;SDS011;25203;50.754;6.978;2023-07-02T10:07:34;28.35;;;15.48;;
39524;SDS011;25203;50.754;6.978;2023-07-02T10:11:38;25.17;;;14.40;;
39524;SDS011;25203;50.754;6.978;2023-07-02T10:13:39;27.75;;;14.30;;
39524;SDS011;25203;50.754;6.978;2023-07-02T10:15:40;22.45;;;13.30;;
39524;SDS011;25203;50.754;6.978;2023-07-02T10:17:41;24.33;;;13.45;;
39524;SDS011;25203;50.754;6.978;2023-07-02T10:19:49;25.52;;;13.75;;
39524;SDS011;25203;50.754;6.978;2023-07-02T10:22:04;25.15;;;14.05;;
39524;SDS011;25203;50.754;6.978;2023-07-02T10:24:13;24.38;;;14.40;;
39524;SDS011;25203;50.754;6.978;2023-07-02T10:26:16;24.48;;;14.23;;
39524;SDS011;25203;50.754;6.978;2023-07-02T10:28:19;24.83;;;14.55;;
39524;SDS011;25203;50.754;6.978;2023-07-02T10:30:37;27.08;;;14.95;;
39524;SDS011;25203;50.754;6.978;2023-07-02T10:32:38;26.60;;;13.60;;
39524;SDS011;25203;50.754;6.978;2023-07-02T10:34:39;28.63;;;15.02;;
39524;SDS011;25203;50.754;6.978;2023-07-02T10:36:40;24.75;;;14.65;;
39524;SDS011;25203;50.754;6.978;2023-07-02T10:38:41;32.08;;;15.45;;
39524;SDS011;25203;50.754;6.978;2023-07-02T10:40:42;34.60;;;15.38;;
39524;SDS011;25203;50.754;6.978;2023-07-02T10:42:46;22.67;;;13.73;;
39524;SDS011;25203;50.754;6.978;2023-07-02T10:44:51;22.98;;;14.18;;
39524;SDS011;25203;50.754;6.978;2023-07-02T10:46:52;32.72;;;15.48;;
39524;SDS011;25203;50.754;6.978;2023-07-02T10:48:56;26.95;;;14.25;;
39524;SDS011;25203;50.754;6.978;2023-07-02T10:50:57;28.27;;;14.07;;
39524;SDS011;25203;50.754;6.978;2023-07-02T10:52:58;23.90;;;14.15;;
39524;SDS011;25203;50.754;6.978;2023-07-02T10:54:58;29.80;;;14.63;;
39524;SDS011;25203;50.754;6.978;2023-07-02T10:56:59;36.28;;;14.30;;
39524;SDS011;25203;50.754;6.978;2023-07-02T10:58:59;24.23;;;13.55;;
39524;SDS011;25203;50.754;6.978;2023-07-02T11:01:00;22.52;;;14.52;;
39524;SDS011;25203;50.754;6.978;2023-07-02T11:03:02;25.77;;;13.57;;
39524;SDS011;25203;50.754;6.978;2023-07-02T11:05:07;21.48;;;13.25;;
39524;SDS011;25203;50.754;6.978;2023-07-02T11:07:13;16.77;;;11.73;;
39524;SDS011;25203;50.754;6.978;2023-07-02T11:09:17;22.27;;;13.07;;
39524;SDS011;25203;50.754;6.978;2023-07-02T11:11:21;18.67;;;12.57;;
39524;SDS011;25203;50.754;6.978;2023-07-02T11:13:23;21.67;;;12.27;;
39524;SDS011;25203;50.754;6.978;2023-07-02T11:15:23;25.05;;;13.40;;
39524;SDS011;25203;50.754;6.978;2023-07-02T11:17:25;24.00;;;13.15;;
39524;SDS011;25203;50.754;6.978;2023-07-02T11:19:26;20.00;;;12.07;;
39524;SDS011;25203;50.754;6.978;2023-07-02T11:21:26;27.52;;;12.25;;
39524;SDS011;25203;50.754;6.978;2023-07-02T11:23:27;24.52;;;11.77;;
39524;SDS011;25203;50.754;6.978;2023-07-02T11:25:29;21.13;;;13.38;;
39524;SDS011;25203;50.754;6.978;2023-07-02T11:27:30;20.80;;;12.60;;
39524;SDS011;25203;50.754;6.978;2023-07-02T11:29:31;22.50;;;13.32;;
39524;SDS011;25203;50.754;6.978;2023-07-02T11:31:33;22.35;;;13.63;;
39524;SDS011;25203;50.754;6.978;2023-07-02T11:35:38;21.88;;;13.20;;
39524;SDS011;25203;50.754;6.978;2023-07-02T11:37:38;25.63;;;13.07;;
39524;SDS011;25203;50.754;6.978;2023-07-02T11:39:39;26.92;;;13.25;;
39524;SDS011;25203;50.754;6.978;2023-07-02T11:41:45;26.95;;;13.65;;
39524;SDS011;25203;50.754;6.978;2023-07-02T11:43:47;22.80;;;13.05;;
39524;SDS011;25203;50.754;6.978;2023-07-02T11:45:48;25.27;;;13.60;;
39524;SDS011;25203;50.754;6.978;2023-07-02T11:47:49;24.17;;;13.57;;
39524;SDS011;25203;50.754;6.978;2023-07-02T11:49:49;25.25;;;13.55;;
39524;SDS011;25203;50.754;6.978;2023-07-02T11:51:50;24.63;;;14.05;;
39524;SDS011;25203;50.754;6.978;2023-07-02T11:53:50;23.08;;;13.50;;
39524;SDS011;25203;50.754;6.978;2023-07-02T11:55:51;27.50;;;14.13;;